Time;durP1;ratioP1;P1;durP2;ratioP2;P2;SDS_P1;SDS_P2;PMS_P1;PMS_P2;Temp;Humidity;BMP_temperature;BMP_pressure;BME280_temperature;BME280_humidity;BME280_pressure;Samples;Min_cycle;Max_cycle;Signal;HPM_P1;HPM_P2
2021/11/02 00:00:38;;;;;;;17.98;7.65;;;;;;;;;;5037303;28;20013;-88
2021/11/02 00:03:04;;;;;;;14.27;6.90;;;;;;;;;;5055131;28;20049;-88
2021/11/02 00:05:30;;;;;;;14.77;6.45;;;;;;;;;;5055324;28;20384;-87
2021/11/02 00:07:55;;;;;;;17.13;6.88;;;;;;;;;;5037232;28;20100;-87
2021/11/02 00:10:20;;;;;;;13.18;6.50;;;;;;;;;;5055083;28;20028;-87
2021/11/02 00:12:46;;;;;;;15.77;6.72;;;;;;;;;;5037483;28;20017;-87
2021/11/02 00:15:12;;;;;;;14.48;7.68;;;;;;;;;;5037185;28;20021;-88
2021/11/02 00:17:39;;;;;;;10.18;6.90;;;;;;;;;;5055252;28;20021;-87
2021/11/02 00:20:06;;;;;;;14.23;7.35;;;;;;;;;;5036999;28;20024;-87
2021/11/02 00:22:34;;;;;;;14.07;5.63;;;;;;;;;;5054941;28;20032;-87
2021/11/02 00:25:11;;;;;;;11.57;5.38;;;;;;;;;;5036982;28;20043;-87
2021/11/02 00:27:38;;;;;;;8.73;5.53;;;;;;;;;;5037202;28;20075;-87
2021/11/02 00:30:05;;;;;;;16.27;6.10;;;;;;;;;;5054671;28;20096;-88
2021/11/02 00:32:30;;;;;;;16.42;6.25;;;;;;;;;;5054658;28;20013;-88
2021/11/02 00:34:57;;;;;;;12.52;6.70;;;;;;;;;;5054495;28;20462;-88
2021/11/02 00:37:22;;;;;;;16.50;6.60;;;;;;;;;;5054716;28;20411;-88
2021/11/02 00:39:47;;;;;;;10.80;6.35;;;;;;;;;;5036738;28;20017;-88
2021/11/02 00:42:13;;;;;;;15.00;6.57;;;;;;;;;;5036594;28;20020;-88
2021/11/02 00:44:42;;;;;;;9.05;6.95;;;;;;;;;;5036626;28;20086;-88
2021/11/02 00:47:07;;;;;;;17.17;7.57;;;;;;;;;;5036657;28;20385;-88
2021/11/02 00:49:33;;;;;;;16.13;7.32;;;;;;;;;;5036494;28;20017;-88
2021/11/02 00:51:58;;;;;;;12.57;6.10;;;;;;;;;;5054459;28;20017;-88
2021/11/02 00:54:23;;;;;;;16.70;7.57;;;;;;;;;;5054333;28;20021;-87
2021/11/02 00:56:48;;;;;;;12.50;7.27;;;;;;;;;;5036310;28;20275;-87
2021/11/02 00:59:14;;;;;;;15.80;6.85;;;;;;;;;;5036406;28;20256;-88
2021/11/02 01:01:39;;;;;;;18.67;7.15;;;;;;;;;;5054101;28;20102;-88
2021/11/02 01:04:05;;;;;;;16.38;6.70;;;;;;;;;;5035855;28;20378;-88
2021/11/02 01:06:35;;;;;;;16.23;7.85;;;;;;;;;;5036261;28;20045;-88
2021/11/02 01:09:01;;;;;;;18.60;8.38;;;;;;;;;;5054064;28;20396;-87
2021/11/02 01:11:26;;;;;;;15.20;7.20;;;;;;;;;;5053836;28;20104;-87
2021/11/02 01:13:52;;;;;;;8.13;6.05;;;;;;;;;;5036003;28;20017;-87
2021/11/02 01:16:20;;;;;;;18.33;7.35;;;;;;;;;;5036145;28;20020;-87
2021/11/02 01:18:45;;;;;;;10.68;6.35;;;;;;;;;;5053919;28;20017;-87
2021/11/02 01:21:10;;;;;;;9.38;6.15;;;;;;;;;;5035786;28;20029;-87
2021/11/02 01:23:36;;;;;;;14.75;6.68;;;;;;;;;;5036005;28;20103;-87
2021/11/02 01:26:01;;;;;;;11.80;6.63;;;;;;;;;;5035755;28;20074;-87
2021/11/02 01:28:27;;;;;;;23.50;6.60;;;;;;;;;;5053822;28;20017;-87
2021/11/02 01:30:52;;;;;;;14.93;7.72;;;;;;;;;;5035658;28;20041;-87
2021/11/02 01:33:18;;;;;;;12.77;6.47;;;;;;;;;;5035876;28;20013;-87
2021/11/02 01:35:43;;;;;;;15.02;6.57;;;;;;;;;;5053573;28;20013;-87
2021/11/02 01:38:09;;;;;;;14.10;7.10;;;;;;;;;;5053652;28;20362;-87
2021/11/02 01:40:35;;;;;;;12.93;7.30;;;;;;;;;;5035771;28;20474;-87
2021/11/02 01:43:00;;;;;;;22.25;8.88;;;;;;;;;;5035546;28;20083;-87
2021/11/02 01:45:27;;;;;;;14.00;7.05;;;;;;;;;;5053304;28;20013;-87
2021/11/02 01:47:53;;;;;;;17.67;8.35;;;;;;;;;;5053316;28;20023;-87
2021/11/02 01:50:18;;;;;;;19.98;9.45;;;;;;;;;;5053403;28;20029;-87
2021/11/02 01:52:43;;;;;;;18.05;9.40;;;;;;;;;;5035513;28;20718;-87
2021/11/02 01:55:11;;;;;;;16.50;9.10;;;;;;;;;;5053391;28;20047;-87
2021/11/02 01:57:36;;;;;;;18.50;9.38;;;;;;;;;;5053360;28;20095;-87
2021/11/02 02:00:06;;;;;;;12.35;8.55;;;;;;;;;;5035536;28;20453;-87
2021/11/02 02:02:33;;;;;;;15.40;9.00;;;;;;;;;;5037320;28;20021;-87
2021/11/02 02:05:18;;;;;;;17.92;8.55;;;;;;;;;;5019762;28;20037;-87
2021/11/02 02:08:06;;;;;;;14.93;9.55;;;;;;;;;;5019474;28;20049;-87
2021/11/02 02:10:50;;;;;;;16.73;8.15;;;;;;;;;;5037280;28;20071;-87
2021/11/02 02:13:38;;;;;;;13.45;7.95;;;;;;;;;;5037518;28;20025;-87
2021/11/02 02:16:13;;;;;;;17.50;10.18;;;;;;;;;;5026632;28;20021;-87
2021/11/02 02:18:43;;;;;;;13.15;8.13;;;;;;;;;;5019652;28;20024;-87
2021/11/02 02:21:12;;;;;;;13.80;8.95;;;;;;;;;;5037480;28;20096;-87
2021/11/02 02:23:39;;;;;;;12.65;8.30;;;;;;;;;;5019476;28;20021;-87
2021/11/02 02:26:09;;;;;;;14.75;9.25;;;;;;;;;;5019430;28;20115;-87
2021/11/02 02:28:38;;;;;;;13.63;9.50;;;;;;;;;;5037342;28;20052;-87
2021/11/02 02:31:05;;;;;;;18.27;9.60;;;;;;;;;;5019035;28;20092;-87
2021/11/02 02:33:39;;;;;;;14.40;8.73;;;;;;;;;;5019286;28;20079;-87
2021/11/02 02:36:05;;;;;;;17.58;9.30;;;;;;;;;;5019285;28;20024;-87
2021/11/02 02:38:33;;;;;;;17.08;10.38;;;;;;;;;;5036874;28;20098;-87
2021/11/02 02:40:58;;;;;;;21.75;9.55;;;;;;;;;;5019082;28;20025;-87
2021/11/02 02:43:24;;;;;;;17.48;9.43;;;;;;;;;;5019197;28;20791;-87
2021/11/02 02:45:51;;;;;;;16.77;7.82;;;;;;;;;;5019122;28;20022;-87
2021/11/02 02:48:19;;;;;;;23.90;9.05;;;;;;;;;;5036860;28;20488;-87
2021/11/02 02:50:45;;;;;;;15.63;8.70;;;;;;;;;;5018776;28;20033;-87
2021/11/02 02:53:10;;;;;;;15.57;8.65;;;;;;;;;;5018787;28;20028;-87
2021/11/02 02:55:36;;;;;;;14.65;8.40;;;;;;;;;;5018884;28;20017;-87
2021/11/02 02:58:01;;;;;;;14.95;9.13;;;;;;;;;;5036737;28;20024;-87
2021/11/02 03:00:27;;;;;;;16.48;9.10;;;;;;;;;;5036472;28;20862;-87
2021/11/02 03:02:53;;;;;;;16.52;8.35;;;;;;;;;;5021124;28;20057;-87
2021/11/02 03:05:18;;;;;;;19.48;8.70;;;;;;;;;;5038512;28;20029;-87
2021/11/02 03:07:44;;;;;;;19.52;8.85;;;;;;;;;;5038416;28;20023;-87
2021/11/02 03:10:09;;;;;;;18.25;9.68;;;;;;;;;;5056037;28;20495;-87
2021/11/02 03:12:36;;;;;;;12.63;8.43;;;;;;;;;;5038312;28;20021;-87
2021/11/02 03:17:46;;;;;;;13.73;8.35;;;;;;;;;;5056531;28;20021;-87
2021/11/02 03:48:06;;;;;;;11.52;7.07;;;;;;;;;;5056034;28;20121;-87
2021/11/02 03:59:22;;;;;;;10.85;7.85;;;;;;;;;;5055809;28;20139;-87
2021/11/02 04:26:59;;;;;;;15.00;7.32;;;;;;;;;;5054594;28;20424;-87
2021/11/02 04:32:01;;;;;;;18.52;8.18;;;;;;;;;;5054973;28;20047;-87
2021/11/02 05:12:49;;;;;;;15.45;9.80;;;;;;;;;;5054013;28;20047;-88
2021/11/02 05:48:13;;;;;;;17.50;11.68;;;;;;;;;;5038749;28;20790;-87
2021/11/02 05:56:22;;;;;;;15.40;9.88;;;;;;;;;;5033381;28;20715;-87
2021/11/02 05:59:11;;;;;;;24.25;12.43;;;;;;;;;;5015367;28;20021;-87
2021/11/02 06:04:59;;;;;;;15.07;11.52;;;;;;;;;;5033258;28;20123;-87
2021/11/02 06:07:26;;;;;;;20.98;10.95;;;;;;;;;;5034175;28;20037;-87
2021/11/02 06:10:01;;;;;;;18.58;13.15;;;;;;;;;;5015645;28;20054;-87
2021/11/02 06:29:07;;;;;;;29.02;14.88;;;;;;;;;;5031825;28;20029;-87
2021/11/02 06:31:44;;;;;;;20.20;13.83;;;;;;;;;;5035081;28;20464;-87
2021/11/02 06:42:07;;;;;;;15.50;10.70;;;;;;;;;;5048238;28;20099;-88
2021/11/02 06:53:14;;;;;;;21.83;13.20;;;;;;;;;;5012259;28;20033;-87
2021/11/02 06:56:20;;;;;;;23.85;13.05;;;;;;;;;;5018724;28;20088;-87
2021/11/02 06:59:08;;;;;;;18.85;11.63;;;;;;;;;;5035945;28;20034;-87
2021/11/02 07:15:52;;;;;;;16.25;10.43;;;;;;;;;;5035049;28;20871;-88
2021/11/02 07:18:27;;;;;;;18.27;11.48;;;;;;;;;;5034914;28;20013;-87
2021/11/02 07:21:06;;;;;;;18.13;13.00;;;;;;;;;;5018366;28;20055;-88
2021/11/02 07:23:41;;;;;;;18.98;9.85;;;;;;;;;;5022079;28;20017;-87
2021/11/02 07:26:37;;;;;;;24.50;12.02;;;;;;;;;;5037970;28;20131;-87
2021/11/02 08:46:36;;;;;;;18.30;10.82;;;;;;;;;;5035528;28;20048;-87
2021/11/02 08:49:03;;;;;;;16.27;9.68;;;;;;;;;;5034582;28;20024;-87
2021/11/02 08:51:28;;;;;;;20.73;11.18;;;;;;;;;;5016364;28;20461;-87
2021/11/02 08:53:54;;;;;;;13.43;9.15;;;;;;;;;;5014715;28;20053;-87
2021/11/02 08:56:19;;;;;;;18.85;9.65;;;;;;;;;;5025579;28;20075;-87
2021/11/02 08:58:46;;;;;;;15.70;10.50;;;;;;;;;;5036248;28;20067;-87
2021/11/02 09:01:12;;;;;;;19.33;10.30;;;;;;;;;;5053806;28;20021;-87
2021/11/02 09:03:43;;;;;;;13.90;8.23;;;;;;;;;;5035632;28;20056;-87
2021/11/02 09:06:10;;;;;;;21.83;10.20;;;;;;;;;;5035457;28;20473;-88
2021/11/02 09:08:43;;;;;;;17.92;10.57;;;;;;;;;;5025372;28;20024;-87
2021/11/02 09:11:08;;;;;;;16.17;9.52;;;;;;;;;;5033565;28;20030;-88
2021/11/02 09:13:34;;;;;;;16.00;9.55;;;;;;;;;;5033604;28;20803;-88
2021/11/02 09:16:03;;;;;;;18.77;9.32;;;;;;;;;;5015854;28;20457;-88
2021/11/02 09:18:29;;;;;;;15.68;9.77;;;;;;;;;;5013929;28;20017;-88
2021/11/02 09:20:55;;;;;;;18.83;9.75;;;;;;;;;;5048432;28;20424;-87
2021/11/02 09:23:20;;;;;;;15.27;8.70;;;;;;;;;;5036179;28;20024;-87
2021/11/02 09:25:47;;;;;;;22.83;10.70;;;;;;;;;;5035477;28;20148;-87
2021/11/02 09:28:12;;;;;;;24.95;10.13;;;;;;;;;;5035314;28;20052;-87
2021/11/02 09:30:38;;;;;;;19.58;10.88;;;;;;;;;;5033368;28;20075;-88
2021/11/02 09:33:03;;;;;;;18.07;9.90;;;;;;;;;;5024241;28;20768;-88
2021/11/02 09:35:30;;;;;;;16.60;9.95;;;;;;;;;;5015953;28;20291;-88
2021/11/02 09:38:14;;;;;;;16.02;9.93;;;;;;;;;;5033922;28;20022;-88
2021/11/02 09:40:53;;;;;;;16.52;10.23;;;;;;;;;;5015182;28;20035;-88
2021/11/02 09:43:22;;;;;;;20.38;10.35;;;;;;;;;;5015192;28;20386;-87
2021/11/02 09:45:56;;;;;;;14.43;9.75;;;;;;;;;;5052746;28;20120;-88
2021/11/02 09:48:22;;;;;;;15.63;9.30;;;;;;;;;;5035383;28;20066;-88
2021/11/02 09:50:47;;;;;;;21.27;9.77;;;;;;;;;;5035140;28;20033;-88
2021/11/02 09:53:20;;;;;;;12.10;10.02;;;;;;;;;;5034166;28;20021;-88
2021/11/02 09:56:04;;;;;;;21.42;11.48;;;;;;;;;;5033061;28;20025;-88
2021/11/02 09:58:30;;;;;;;18.45;11.23;;;;;;;;;;5055898;28;20027;-87
2021/11/02 10:01:13;;;;;;;15.95;11.50;;;;;;;;;;5053145;28;20517;-88
2021/11/02 10:04:12;;;;;;;18.13;10.23;;;;;;;;;;5052723;28;20049;-87
2021/11/02 10:06:48;;;;;;;15.00;10.80;;;;;;;;;;5014767;28;20037;-87
2021/11/02 10:09:25;;;;;;;16.55;10.48;;;;;;;;;;5032409;28;20025;-87
2021/11/02 10:12:07;;;;;;;17.92;10.90;;;;;;;;;;5053189;28;20078;-87
2021/11/02 10:14:43;;;;;;;15.05;11.30;;;;;;;;;;5053052;28;20028;-88
2021/11/02 10:17:25;;;;;;;15.35;10.77;;;;;;;;;;5052436;28;20048;-88
2021/11/02 10:19:54;;;;;;;16.52;11.02;;;;;;;;;;5051400;28;20024;-88
2021/11/02 10:22:28;;;;;;;18.15;10.43;;;;;;;;;;5056447;28;20040;-88
2021/11/02 10:25:14;;;;;;;18.67;10.65;;;;;;;;;;5024024;28;20029;-88
2021/11/02 10:27:40;;;;;;;16.77;9.90;;;;;;;;;;5019329;28;20507;-88
2021/11/02 10:30:18;;;;;;;15.07;9.20;;;;;;;;;;5033672;28;20061;-87
2021/11/02 10:32:45;;;;;;;14.70;10.25;;;;;;;;;;5032564;28;20021;-88
2021/11/02 10:35:17;;;;;;;16.10;9.48;;;;;;;;;;5036175;28;20036;-88
2021/11/02 10:37:52;;;;;;;18.05;10.38;;;;;;;;;;5018883;28;20047;-88
2021/11/02 10:40:23;;;;;;;17.15;10.48;;;;;;;;;;5026183;28;20119;-88
2021/11/02 10:43:01;;;;;;;15.65;9.40;;;;;;;;;;5055576;28;20017;-88
2021/11/02 10:45:28;;;;;;;14.45;9.15;;;;;;;;;;5071151;28;20021;-88
2021/11/02 10:47:53;;;;;;;17.10;9.40;;;;;;;;;;5072649;28;20024;-88
2021/11/02 10:50:21;;;;;;;16.15;9.20;;;;;;;;;;5076267;28;20059;-88
2021/11/02 10:52:47;;;;;;;12.77;8.88;;;;;;;;;;5076452;28;20020;-87
2021/11/02 10:55:33;;;;;;;17.65;9.05;;;;;;;;;;5075110;28;20019;-87
2021/11/02 10:58:35;;;;;;;18.95;9.10;;;;;;;;;;5058041;28;20024;-87
2021/11/02 11:01:01;;;;;;;15.13;8.23;;;;;;;;;;4978609;28;20018;-87
2021/11/02 11:03:28;;;;;;;17.60;8.57;;;;;;;;;;5046199;28;20052;-87
2021/11/02 11:05:55;;;;;;;17.15;8.98;;;;;;;;;;5057842;28;20016;-87
2021/11/02 11:08:24;;;;;;;14.60;8.38;;;;;;;;;;5059159;28;20023;-88
2021/11/02 11:10:49;;;;;;;16.02;8.38;;;;;;;;;;5061389;28;20426;-87
2021/11/02 11:13:17;;;;;;;14.82;8.63;;;;;;;;;;5057940;28;20013;-87
2021/11/02 11:15:42;;;;;;;17.65;8.88;;;;;;;;;;5058073;28;20030;-87
2021/11/02 11:18:08;;;;;;;19.63;7.15;;;;;;;;;;5075870;28;20774;-88
2021/11/02 11:20:35;;;;;;;16.30;7.22;;;;;;;;;;5055451;28;20038;-87
2021/11/02 11:23:04;;;;;;;14.13;6.97;;;;;;;;;;5074579;28;20020;-88
2021/11/02 11:25:31;;;;;;;16.20;6.95;;;;;;;;;;5075998;28;20033;-88
2021/11/02 11:27:57;;;;;;;13.27;6.32;;;;;;;;;;5075989;28;20032;-87
2021/11/02 11:30:34;;;;;;;13.90;7.03;;;;;;;;;;5056357;28;20434;-88
2021/11/02 11:33:05;;;;;;;14.55;6.95;;;;;;;;;;5055650;28;20515;-88
2021/11/02 11:35:31;;;;;;;14.13;6.32;;;;;;;;;;5038116;28;20032;-88
2021/11/02 11:37:57;;;;;;;17.58;7.38;;;;;;;;;;5037642;28;20017;-88
2021/11/02 11:40:24;;;;;;;15.75;7.15;;;;;;;;;;5037678;28;20024;-88
2021/11/02 11:42:51;;;;;;;13.13;5.95;;;;;;;;;;5055226;28;20369;-88
2021/11/02 11:45:18;;;;;;;12.07;6.97;;;;;;;;;;5033491;28;20025;-88
2021/11/02 11:47:44;;;;;;;16.42;6.43;;;;;;;;;;5017023;28;20410;-88
2021/11/02 11:50:25;;;;;;;10.75;6.32;;;;;;;;;;5017493;28;20140;-88
2021/11/02 11:52:51;;;;;;;11.85;5.95;;;;;;;;;;5017655;28;20013;-88
2021/11/02 11:55:21;;;;;;;14.35;5.97;;;;;;;;;;5035842;28;20017;-88
2021/11/02 11:57:59;;;;;;;11.77;5.90;;;;;;;;;;5019476;28;20024;-88
2021/11/02 12:00:25;;;;;;;10.00;5.90;;;;;;;;;;5035264;28;20100;-87
2021/11/02 12:03:17;;;;;;;11.82;6.00;;;;;;;;;;5017178;28;20363;-88
2021/11/02 12:05:46;;;;;;;10.25;5.63;;;;;;;;;;4986592;28;20567;-88
2021/11/02 12:08:15;;;;;;;14.27;6.53;;;;;;;;;;5033626;28;20025;-88
2021/11/02 12:10:41;;;;;;;18.48;5.95;;;;;;;;;;5016893;28;20032;-88
2021/11/02 12:13:08;;;;;;;12.75;5.65;;;;;;;;;;5017246;28;20469;-88
2021/11/02 12:15:35;;;;;;;13.07;6.00;;;;;;;;;;5017127;28;20025;-88
2021/11/02 12:18:01;;;;;;;19.33;6.50;;;;;;;;;;5033582;28;20021;-87
2021/11/02 12:20:28;;;;;;;10.50;5.97;;;;;;;;;;5015753;28;20024;-88
2021/11/02 12:22:59;;;;;;;10.20;5.88;;;;;;;;;;5032021;28;20473;-87
2021/11/02 12:25:28;;;;;;;13.15;5.28;;;;;;;;;;5036722;28;20023;-87
2021/11/02 12:27:53;;;;;;;14.15;5.28;;;;;;;;;;5036952;28;20021;-87
2021/11/02 12:30:20;;;;;;;10.15;5.80;;;;;;;;;;5054466;28;20415;-88
2021/11/02 12:32:50;;;;;;;8.85;5.75;;;;;;;;;;5053431;28;20067;-88
2021/11/02 12:35:21;;;;;;;17.10;5.63;;;;;;;;;;5036016;28;20377;-88
2021/11/02 12:37:54;;;;;;;7.97;5.20;;;;;;;;;;5036477;28;20159;-88
2021/11/02 12:40:21;;;;;;;12.27;5.45;;;;;;;;;;5035455;28;20028;-88
2021/11/02 12:42:47;;;;;;;13.55;5.38;;;;;;;;;;5034693;28;20029;-88
2021/11/02 12:45:12;;;;;;;9.32;5.55;;;;;;;;;;5036681;28;20385;-88
2021/11/02 12:47:38;;;;;;;11.70;5.93;;;;;;;;;;5036123;28;20033;-88
2021/11/02 12:50:04;;;;;;;11.80;5.07;;;;;;;;;;5054335;28;20021;-88
2021/11/02 12:52:31;;;;;;;13.60;5.15;;;;;;;;;;5054118;28;20021;-88
2021/11/02 12:55:05;;;;;;;9.68;5.30;;;;;;;;;;5036154;28;20013;-88
2021/11/02 12:57:38;;;;;;;11.85;5.70;;;;;;;;;;5035067;28;20112;-88
2021/11/02 13:00:08;;;;;;;15.10;5.65;;;;;;;;;;5052248;28;20032;-88
2021/11/02 13:02:35;;;;;;;15.07;5.57;;;;;;;;;;5035919;28;20059;-88
2021/11/02 13:05:02;;;;;;;9.32;5.57;;;;;;;;;;5035876;28;20044;-88
2021/11/02 13:07:27;;;;;;;11.90;5.80;;;;;;;;;;5051761;28;20709;-88
2021/11/02 13:09:54;;;;;;;13.00;6.35;;;;;;;;;;5046489;28;20092;-88
2021/11/02 13:12:23;;;;;;;12.63;6.63;;;;;;;;;;5044201;28;20033;-88
2021/11/02 13:14:49;;;;;;;15.15;5.95;;;;;;;;;;5035734;28;20021;-88
2021/11/02 13:17:18;;;;;;;11.65;5.35;;;;;;;;;;5035913;28;20111;-88
2021/11/02 13:19:48;;;;;;;17.77;6.25;;;;;;;;;;5035328;28;20067;-88
2021/11/02 13:22:19;;;;;;;9.93;5.47;;;;;;;;;;5052346;28;20096;-88
2021/11/02 13:25:04;;;;;;;10.35;5.82;;;;;;;;;;5035998;28;20017;-88
2021/11/02 13:27:38;;;;;;;11.15;5.65;;;;;;;;;;5052948;28;20111;-88
2021/11/02 13:30:22;;;;;;;10.00;5.63;;;;;;;;;;5051873;28;20079;-88
2021/11/02 13:33:08;;;;;;;10.25;5.82;;;;;;;;;;5053229;28;20013;-88
2021/11/02 13:35:37;;;;;;;11.80;6.25;;;;;;;;;;5053531;28;20373;-88
2021/11/02 13:38:20;;;;;;;12.05;6.22;;;;;;;;;;5053488;28;20110;-88
2021/11/02 13:40:46;;;;;;;15.07;6.22;;;;;;;;;;5036154;28;20033;-88
2021/11/02 13:43:11;;;;;;;11.70;5.93;;;;;;;;;;5052195;28;20021;-88
2021/11/02 13:45:39;;;;;;;17.17;6.07;;;;;;;;;;5032147;28;20252;-88
2021/11/02 13:48:04;;;;;;;15.48;6.05;;;;;;;;;;5014815;28;20416;-88
2021/11/02 13:50:30;;;;;;;16.60;6.35;;;;;;;;;;5015691;28;20025;-88
2021/11/02 13:52:57;;;;;;;13.98;6.13;;;;;;;;;;5033556;28;20828;-88
2021/11/02 13:55:23;;;;;;;15.38;6.35;;;;;;;;;;5017022;28;20389;-88
2021/11/02 13:57:48;;;;;;;10.85;5.80;;;;;;;;;;5033169;28;20021;-88
2021/11/02 14:00:13;;;;;;;17.23;6.32;;;;;;;;;;5052538;28;20059;-88
2021/11/02 14:02:40;;;;;;;10.80;5.30;;;;;;;;;;5039711;28;20021;-88
2021/11/02 14:05:06;;;;;;;11.63;5.78;;;;;;;;;;5015038;28;20031;-88
2021/11/02 14:07:32;;;;;;;11.00;5.60;;;;;;;;;;5035124;28;20035;-88
2021/11/02 14:09:59;;;;;;;12.52;5.03;;;;;;;;;;5034750;28;20028;-88
2021/11/02 14:12:28;;;;;;;14.02;5.75;;;;;;;;;;5052964;28;20025;-88
2021/11/02 14:15:14;;;;;;;12.23;5.25;;;;;;;;;;5052905;28;20021;-88
2021/11/02 14:17:40;;;;;;;11.77;6.15;;;;;;;;;;5024079;28;20020;-89
2021/11/02 14:20:05;;;;;;;16.30;6.80;;;;;;;;;;5016089;28;20022;-88
2021/11/02 14:22:48;;;;;;;23.77;7.60;;;;;;;;;;5032910;28;20465;-88
2021/11/02 14:25:30;;;;;;;15.02;7.03;;;;;;;;;;5015262;28;20485;-88
2021/11/02 14:27:56;;;;;;;15.52;6.60;;;;;;;;;;5022401;28;20025;-88
2021/11/02 14:30:27;;;;;;;14.43;7.22;;;;;;;;;;5034119;28;20117;-88
2021/11/02 14:32:53;;;;;;;13.45;6.75;;;;;;;;;;5018333;28;20017;-88
2021/11/02 14:35:45;;;;;;;13.95;7.32;;;;;;;;;;5032545;28;20029;-88
2021/11/02 14:38:16;;;;;;;20.10;9.02;;;;;;;;;;5033365;28;20025;-88
2021/11/02 14:40:43;;;;;;;15.05;8.38;;;;;;;;;;5017330;28;20029;-88
2021/11/02 14:43:22;;;;;;;17.48;8.40;;;;;;;;;;5031306;28;20033;-88
2021/11/02 14:46:03;;;;;;;15.82;8.55;;;;;;;;;;5021006;28;20051;-88
2021/11/02 14:48:32;;;;;;;15.30;8.73;;;;;;;;;;5054398;28;20388;-88
2021/11/02 14:50:58;;;;;;;22.48;8.02;;;;;;;;;;5054768;28;20037;-88
2021/11/02 14:53:30;;;;;;;21.05;10.35;;;;;;;;;;5054662;28;20422;-88
2021/11/02 14:55:58;;;;;;;14.95;9.88;;;;;;;;;;5052157;28;20106;-88
2021/11/02 14:58:39;;;;;;;18.85;10.48;;;;;;;;;;5053388;28;20025;-88
2021/11/02 15:01:19;;;;;;;23.33;12.00;;;;;;;;;;5054245;28;20051;-88
2021/11/02 15:03:58;;;;;;;22.77;12.32;;;;;;;;;;5071079;28;20052;-88
2021/11/02 15:06:32;;;;;;;21.63;12.90;;;;;;;;;;5052172;28;20055;-88
2021/11/02 15:08:58;;;;;;;18.27;10.70;;;;;;;;;;5039196;28;20112;-88
2021/11/02 15:11:24;;;;;;;16.02;11.52;;;;;;;;;;5055644;28;20103;-88
2021/11/02 15:13:53;;;;;;;19.25;12.68;;;;;;;;;;5055751;28;20029;-87
2021/11/02 15:16:19;;;;;;;22.00;12.48;;;;;;;;;;5055137;28;20021;-87
2021/11/02 15:18:47;;;;;;;23.55;12.68;;;;;;;;;;5039480;28;20036;-88
2021/11/02 15:21:17;;;;;;;21.60;14.18;;;;;;;;;;5033883;28;20017;-88
2021/11/02 15:23:44;;;;;;;30.70;13.68;;;;;;;;;;5035969;28;20014;-88
2021/11/02 15:26:10;;;;;;;20.90;13.07;;;;;;;;;;5017407;28;20018;-88
2021/11/02 15:28:53;;;;;;;21.73;14.43;;;;;;;;;;5033630;28;20029;-87
2021/11/02 15:31:22;;;;;;;25.65;14.63;;;;;;;;;;5038015;28;20068;-86
2021/11/02 15:33:48;;;;;;;20.90;14.45;;;;;;;;;;5049214;28;20013;-86
2021/11/02 15:36:21;;;;;;;25.30;15.63;;;;;;;;;;5017350;28;20091;-85
2021/11/02 15:39:06;;;;;;;23.35;15.52;;;;;;;;;;5017428;28;20013;-85
2021/11/02 15:41:32;;;;;;;24.48;16.48;;;;;;;;;;5017417;28;20028;-86
2021/11/02 15:44:01;;;;;;;19.58;14.15;;;;;;;;;;5014989;28;20022;-86
2021/11/02 15:46:33;;;;;;;20.15;16.20;;;;;;;;;;5016772;28;20504;-86
2021/11/02 15:48:59;;;;;;;26.15;15.25;;;;;;;;;;5034894;28;20397;-86
2021/11/02 15:51:30;;;;;;;29.40;16.55;;;;;;;;;;5034567;28;20029;-86
2021/11/02 15:53:56;;;;;;;26.80;16.95;;;;;;;;;;5032758;28;20049;-86
2021/11/02 15:56:22;;;;;;;23.98;15.77;;;;;;;;;;5016794;28;20860;-86
2021/11/02 15:58:54;;;;;;;25.67;18.67;;;;;;;;;;5017164;28;20026;-86
2021/11/02 16:01:32;;;;;;;30.25;18.25;;;;;;;;;;5017062;28;20029;-86
2021/11/02 16:04:08;;;;;;;26.55;18.98;;;;;;;;;;5034923;28;20065;-86
2021/11/02 16:06:33;;;;;;;23.67;16.75;;;;;;;;;;5046696;28;20033;-86
2021/11/02 16:09:01;;;;;;;25.80;18.15;;;;;;;;;;5052554;28;20021;-86
2021/11/02 16:11:26;;;;;;;26.20;18.33;;;;;;;;;;5035591;28;20727;-86
2021/11/02 16:13:52;;;;;;;23.10;17.70;;;;;;;;;;5054524;28;20029;-85
2021/11/02 16:16:17;;;;;;;32.92;20.10;;;;;;;;;;5054272;28;20282;-86
2021/11/02 16:18:42;;;;;;;29.08;20.75;;;;;;;;;;5052441;28;20021;-86
2021/11/02 16:21:08;;;;;;;24.45;18.92;;;;;;;;;;5033638;28;20067;-86
2021/11/02 16:23:41;;;;;;;25.83;20.17;;;;;;;;;;5016865;28;20477;-86
2021/11/02 16:26:15;;;;;;;29.75;20.98;;;;;;;;;;5016384;28;20022;-86
2021/11/02 16:28:41;;;;;;;33.78;22.55;;;;;;;;;;5016408;28;20044;-86
2021/11/02 16:31:07;;;;;;;28.48;21.65;;;;;;;;;;5034495;28;20069;-86
2021/11/02 16:33:33;;;;;;;36.05;23.42;;;;;;;;;;5052726;28;20036;-86
2021/11/02 16:36:12;;;;;;;31.50;22.83;;;;;;;;;;5034980;28;20736;-86
2021/11/02 16:38:37;;;;;;;26.33;22.42;;;;;;;;;;5035833;28;20017;-86
2021/11/02 16:41:02;;;;;;;26.60;20.92;;;;;;;;;;5035560;28;20533;-86
2021/11/02 16:43:32;;;;;;;29.80;22.73;;;;;;;;;;5052209;28;20479;-86
2021/11/02 16:45:58;;;;;;;31.85;23.10;;;;;;;;;;5035728;28;20737;-86
2021/11/02 16:48:43;;;;;;;31.45;23.67;;;;;;;;;;5053895;28;20013;-86
2021/11/02 16:51:10;;;;;;;31.17;21.13;;;;;;;;;;5053729;28;20032;-86
2021/11/02 16:53:35;;;;;;;32.50;24.35;;;;;;;;;;5035956;28;20017;-86
2021/11/02 16:56:08;;;;;;;34.17;23.90;;;;;;;;;;5034925;28;20284;-86
2021/11/02 16:58:35;;;;;;;32.40;26.02;;;;;;;;;;5034172;28;20263;-86
2021/11/02 17:01:11;;;;;;;30.30;24.33;;;;;;;;;;5053378;28;20717;-86
2021/11/02 17:03:36;;;;;;;29.27;24.40;;;;;;;;;;5052787;28;20765;-86
2021/11/02 17:06:18;;;;;;;31.40;25.95;;;;;;;;;;5033255;28;20115;-86
2021/11/02 17:09:02;;;;;;;32.00;26.77;;;;;;;;;;5035610;28;20025;-86
2021/11/02 17:11:28;;;;;;;29.25;21.48;;;;;;;;;;5049876;28;20839;-86
2021/11/02 17:13:54;;;;;;;32.90;23.23;;;;;;;;;;5033740;28;20018;-86
2021/11/02 17:16:23;;;;;;;32.45;23.40;;;;;;;;;;5015662;28;20376;-86
2021/11/02 17:19:01;;;;;;;47.00;27.50;;;;;;;;;;5015478;28;20055;-86
2021/11/02 17:21:28;;;;;;;38.25;26.67;;;;;;;;;;5031245;28;20048;-86
2021/11/02 17:23:54;;;;;;;33.10;27.73;;;;;;;;;;5015221;28;20056;-86
2021/11/02 17:26:20;;;;;;;39.50;28.60;;;;;;;;;;5015501;28;20045;-86
2021/11/02 17:28:47;;;;;;;39.40;30.25;;;;;;;;;;5042833;28;20017;-86
2021/11/02 17:31:13;;;;;;;42.25;31.02;;;;;;;;;;5050927;28;20063;-86
2021/11/02 17:33:38;;;;;;;37.13;29.02;;;;;;;;;;5052973;28;20024;-86
2021/11/02 17:36:08;;;;;;;47.65;30.90;;;;;;;;;;5035111;28;20715;-86
2021/11/02 17:38:33;;;;;;;37.45;27.38;;;;;;;;;;5035162;28;20024;-86
2021/11/02 17:41:02;;;;;;;44.95;30.63;;;;;;;;;;5052777;28;20021;-86
2021/11/02 17:43:28;;;;;;;40.20;31.45;;;;;;;;;;5035298;28;20460;-86
2021/11/02 17:45:54;;;;;;;36.20;25.50;;;;;;;;;;5051152;28;20108;-86
2021/11/02 17:48:19;;;;;;;40.83;30.33;;;;;;;;;;5046334;28;20781;-86
2021/11/02 17:50:45;;;;;;;40.30;28.83;;;;;;;;;;5054240;28;20024;-86
2021/11/02 17:53:10;;;;;;;37.60;28.35;;;;;;;;;;5037545;28;20047;-86
2021/11/02 17:55:35;;;;;;;40.60;30.30;;;;;;;;;;5034296;28;20020;-86
2021/11/02 17:58:02;;;;;;;44.33;30.45;;;;;;;;;;5050482;28;20031;-86
2021/11/02 18:00:28;;;;;;;40.42;30.98;;;;;;;;;;5052094;28;20017;-86
2021/11/02 18:02:54;;;;;;;41.45;29.55;;;;;;;;;;5019649;28;20049;-86
2021/11/02 18:05:21;;;;;;;37.13;26.88;;;;;;;;;;5033001;28;20017;-86
2021/11/02 18:07:47;;;;;;;39.80;30.60;;;;;;;;;;5015129;28;20397;-86
2021/11/02 18:10:15;;;;;;;41.33;30.58;;;;;;;;;;5041193;28;20028;-86
2021/11/02 18:12:40;;;;;;;41.92;29.08;;;;;;;;;;5032942;28;20021;-86
2021/11/02 18:15:07;;;;;;;41.65;30.77;;;;;;;;;;5031770;28;20071;-86
2021/11/02 18:17:33;;;;;;;40.55;31.60;;;;;;;;;;5030377;28;20025;-86
2021/11/02 18:20:00;;;;;;;40.95;31.40;;;;;;;;;;5042822;28;20017;-87
2021/11/02 18:22:25;;;;;;;35.45;29.23;;;;;;;;;;5030404;28;20733;-87
2021/11/02 18:24:51;;;;;;;46.72;33.75;;;;;;;;;;5046507;28;20051;-86
2021/11/02 18:27:18;;;;;;;47.40;33.38;;;;;;;;;;5016677;28;20028;-86
2021/11/02 18:29:45;;;;;;;54.65;36.55;;;;;;;;;;5015660;28;20025;-86
2021/11/02 18:32:11;;;;;;;46.42;34.22;;;;;;;;;;5034608;28;20094;-86
2021/11/02 18:34:36;;;;;;;44.00;32.80;;;;;;;;;;5034613;28;20471;-86
2021/11/02 18:37:02;;;;;;;53.65;37.60;;;;;;;;;;5050255;28;20032;-86
2021/11/02 18:39:27;;;;;;;39.28;29.45;;;;;;;;;;5047562;28;20025;-86
2021/11/02 18:41:53;;;;;;;45.30;34.90;;;;;;;;;;5034563;28;20016;-86
2021/11/02 18:44:18;;;;;;;42.78;33.08;;;;;;;;;;5035588;28;20027;-86
2021/11/02 18:46:45;;;;;;;53.50;38.50;;;;;;;;;;5036797;28;20116;-86
2021/11/02 18:49:10;;;;;;;48.10;37.33;;;;;;;;;;5037128;28;20108;-86
2021/11/02 18:51:36;;;;;;;55.58;40.78;;;;;;;;;;5055904;28;20049;-86
2021/11/02 18:54:01;;;;;;;50.80;37.50;;;;;;;;;;5056109;28;20056;-86
2021/11/02 18:56:27;;;;;;;53.25;36.50;;;;;;;;;;5038307;28;20374;-86
2021/11/02 18:58:53;;;;;;;42.92;30.58;;;;;;;;;;5054980;28;20021;-86
2021/11/02 19:01:21;;;;;;;47.50;36.90;;;;;;;;;;5035437;28;20032;-86
2021/11/02 19:03:48;;;;;;;57.47;40.90;;;;;;;;;;5036839;28;20053;-86
2021/11/02 19:06:13;;;;;;;50.22;38.13;;;;;;;;;;5055622;28;20032;-86
2021/11/02 19:08:40;;;;;;;51.03;38.45;;;;;;;;;;5055986;28;20021;-86
2021/11/02 19:11:06;;;;;;;49.35;35.78;;;;;;;;;;5035658;28;20082;-86